sensor_id;sensor_type;location;lat;lon;timestamp;P1;durP1;ratioP1;P2;durP2;ratioP2
5876;SDS011;2964;42.144;24.730;2023-09-07T00:00:14;14.97;;;13.03;;
5876;SDS011;2964;42.144;24.730;2023-09-07T00:02:41;14.30;;;12.87;;
5876;SDS011;2964;42.144;24.730;2023-09-07T00:05:08;13.97;;;12.87;;
5876;SDS011;2964;42.144;24.730;2023-09-07T00:07:35;14.30;;;12.83;;
5876;SDS011;2964;42.144;24.730;2023-09-07T00:10:02;13.20;;;12.23;;
5876;SDS011;2964;42.144;24.730;2023-09-07T00:12:29;14.07;;;12.50;;
5876;SDS011;2964;42.144;24.730;2023-09-07T00:14:58;16.30;;;12.23;;
5876;SDS011;2964;42.144;24.730;2023-09-07T00:17:25;13.77;;;12.37;;
5876;SDS011;2964;42.144;24.730;2023-09-07T00:19:52;15.93;;;12.80;;
5876;SDS011;2964;42.144;24.730;2023-09-07T00:22:19;13.23;;;12.20;;
5876;SDS011;2964;42.144;24.730;2023-09-07T00:24:46;14.00;;;12.43;;
5876;SDS011;2964;42.144;24.730;2023-09-07T00:27:13;15.20;;;13.20;;
5876;SDS011;2964;42.144;24.730;2023-09-07T00:29:40;12.10;;;11.10;;
5876;SDS011;2964;42.144;24.730;2023-09-07T00:32:08;13.73;;;12.33;;
5876;SDS011;2964;42.144;24.730;2023-09-07T00:34:35;13.27;;;12.17;;
5876;SDS011;2964;42.144;24.730;2023-09-07T00:37:02;14.03;;;12.87;;
5876;SDS011;2964;42.144;24.730;2023-09-07T00:39:28;14.55;;;13.02;;
5876;SDS011;2964;42.144;24.730;2023-09-07T00:41:55;13.70;;;12.63;;
5876;SDS011;2964;42.144;24.730;2023-09-07T00:44:22;13.90;;;12.70;;
5876;SDS011;2964;42.144;24.730;2023-09-07T00:46:48;13.60;;;12.50;;
5876;SDS011;2964;42.144;24.730;2023-09-07T00:49:17;14.80;;;13.40;;
5876;SDS011;2964;42.144;24.730;2023-09-07T00:51:43;14.03;;;12.67;;
5876;SDS011;2964;42.144;24.730;2023-09-07T00:54:11;15.13;;;13.30;;
5876;SDS011;2964;42.144;24.730;2023-09-07T00:56:37;12.80;;;11.87;;
5876;SDS011;2964;42.144;24.730;2023-09-07T00:59:04;14.40;;;12.90;;
5876;SDS011;2964;42.144;24.730;2023-09-07T01:01:34;14.40;;;13.30;;
5876;SDS011;2964;42.144;24.730;2023-09-07T01:04:01;14.93;;;13.73;;
5876;SDS011;2964;42.144;24.730;2023-09-07T01:06:30;14.07;;;12.67;;
5876;SDS011;2964;42.144;24.730;2023-09-07T01:09:00;15.50;;;13.97;;
5876;SDS011;2964;42.144;24.730;2023-09-07T01:11:35;15.77;;;14.17;;
5876;SDS011;2964;42.144;24.730;2023-09-07T01:14:03;16.67;;;14.97;;
5876;SDS011;2964;42.144;24.730;2023-09-07T01:16:30;18.37;;;16.47;;
5876;SDS011;2964;42.144;24.730;2023-09-07T01:18:58;15.97;;;14.60;;
5876;SDS011;2964;42.144;24.730;2023-09-07T01:21:26;19.33;;;16.50;;
5876;SDS011;2964;42.144;24.730;2023-09-07T01:23:55;17.90;;;16.23;;
5876;SDS011;2964;42.144;24.730;2023-09-07T01:26:23;19.63;;;17.17;;
5876;SDS011;2964;42.144;24.730;2023-09-07T01:28:50;19.93;;;18.17;;
5876;SDS011;2964;42.144;24.730;2023-09-07T01:31:16;21.03;;;19.10;;
5876;SDS011;2964;42.144;24.730;2023-09-07T01:33:43;21.37;;;19.47;;
5876;SDS011;2964;42.144;24.730;2023-09-07T01:36:10;22.23;;;19.10;;
5876;SDS011;2964;42.144;24.730;2023-09-07T01:38:37;22.10;;;20.10;;
5876;SDS011;2964;42.144;24.730;2023-09-07T01:41:05;23.10;;;20.90;;
5876;SDS011;2964;42.144;24.730;2023-09-07T01:43:31;27.43;;;23.40;;
5876;SDS011;2964;42.144;24.730;2023-09-07T01:45:58;25.90;;;23.13;;
5876;SDS011;2964;42.144;24.730;2023-09-07T01:48:24;25.33;;;22.83;;
5876;SDS011;2964;42.144;24.730;2023-09-07T01:50:52;28.50;;;25.37;;
5876;SDS011;2964;42.144;24.730;2023-09-07T01:53:19;26.90;;;24.20;;
5876;SDS011;2964;42.144;24.730;2023-09-07T01:55:45;26.53;;;23.90;;
5876;SDS011;2964;42.144;24.730;2023-09-07T01:58:14;27.43;;;24.80;;
5876;SDS011;2964;42.144;24.730;2023-09-07T02:00:40;30.77;;;26.80;;
5876;SDS011;2964;42.144;24.730;2023-09-07T02:03:07;29.30;;;26.57;;
5876;SDS011;2964;42.144;24.730;2023-09-07T02:05:35;29.77;;;26.97;;
5876;SDS011;2964;42.144;24.730;2023-09-07T02:08:02;33.00;;;29.63;;
5876;SDS011;2964;42.144;24.730;2023-09-07T02:10:29;33.50;;;29.20;;
5876;SDS011;2964;42.144;24.730;2023-09-07T02:12:56;31.77;;;28.60;;
5876;SDS011;2964;42.144;24.730;2023-09-07T02:15:24;33.60;;;30.17;;
5876;SDS011;2964;42.144;24.730;2023-09-07T02:17:51;32.83;;;29.47;;
5876;SDS011;2964;42.144;24.730;2023-09-07T02:20:18;34.03;;;30.70;;
5876;SDS011;2964;42.144;24.730;2023-09-07T02:22:45;33.50;;;30.20;;
5876;SDS011;2964;42.144;24.730;2023-09-07T02:25:12;33.10;;;29.60;;
5876;SDS011;2964;42.144;24.730;2023-09-07T02:27:38;34.37;;;30.67;;
5876;SDS011;2964;42.144;24.730;2023-09-07T02:30:05;37.17;;;33.17;;
5876;SDS011;2964;42.144;24.730;2023-09-07T02:32:34;38.17;;;34.03;;
5876;SDS011;2964;42.144;24.730;2023-09-07T02:35:01;40.83;;;33.97;;
5876;SDS011;2964;42.144;24.730;2023-09-07T02:37:27;36.03;;;32.43;;
5876;SDS011;2964;42.144;24.730;2023-09-07T02:39:54;38.03;;;33.93;;
5876;SDS011;2964;42.144;24.730;2023-09-07T02:42:21;38.97;;;35.00;;
5876;SDS011;2964;42.144;24.730;2023-09-07T02:44:49;38.30;;;34.40;;
5876;SDS011;2964;42.144;24.730;2023-09-07T02:47:16;37.57;;;33.57;;
5876;SDS011;2964;42.144;24.730;2023-09-07T02:49:44;40.70;;;36.23;;
5876;SDS011;2964;42.144;24.730;2023-09-07T02:52:11;39.27;;;33.03;;
5876;SDS011;2964;42.144;24.730;2023-09-07T02:54:37;37.10;;;33.00;;
5876;SDS011;2964;42.144;24.730;2023-09-07T02:57:04;39.60;;;35.27;;
5876;SDS011;2964;42.144;24.730;2023-09-07T02:59:30;44.70;;;36.47;;
5876;SDS011;2964;42.144;24.730;2023-09-07T03:01:57;41.10;;;36.60;;
5876;SDS011;2964;42.144;24.730;2023-09-07T03:04:24;44.43;;;36.63;;
5876;SDS011;2964;42.144;24.730;2023-09-07T03:06:52;40.93;;;36.37;;
5876;SDS011;2964;42.144;24.730;2023-09-07T03:09:18;41.63;;;37.23;;
5876;SDS011;2964;42.144;24.730;2023-09-07T03:11:45;47.57;;;37.70;;
5876;SDS011;2964;42.144;24.730;2023-09-07T03:14:12;40.47;;;35.73;;
5876;SDS011;2964;42.144;24.730;2023-09-07T03:16:38;40.17;;;35.37;;
5876;SDS011;2964;42.144;24.730;2023-09-07T03:19:05;38.70;;;34.40;;
5876;SDS011;2964;42.144;24.730;2023-09-07T03:21:32;39.10;;;34.80;;
5876;SDS011;2964;42.144;24.730;2023-09-07T03:24:00;42.23;;;36.20;;
5876;SDS011;2964;42.144;24.730;2023-09-07T03:26:27;40.63;;;35.20;;
5876;SDS011;2964;42.144;24.730;2023-09-07T03:28:53;41.70;;;37.03;;
5876;SDS011;2964;42.144;24.730;2023-09-07T03:31:20;41.13;;;36.90;;
5876;SDS011;2964;42.144;24.730;2023-09-07T03:33:47;42.00;;;37.20;;
5876;SDS011;2964;42.144;24.730;2023-09-07T03:36:13;43.03;;;38.37;;
5876;SDS011;2964;42.144;24.730;2023-09-07T03:38:40;44.07;;;38.20;;
5876;SDS011;2964;42.144;24.730;2023-09-07T03:41:08;44.50;;;38.60;;
5876;SDS011;2964;42.144;24.730;2023-09-07T03:43:35;40.90;;;36.53;;
5876;SDS011;2964;42.144;24.730;2023-09-07T03:46:01;40.30;;;35.90;;
5876;SDS011;2964;42.144;24.730;2023-09-07T03:48:28;43.67;;;37.87;;
5876;SDS011;2964;42.144;24.730;2023-09-07T03:50:55;41.17;;;36.13;;
5876;SDS011;2964;42.144;24.730;2023-09-07T03:53:21;46.83;;;36.13;;
5876;SDS011;2964;42.144;24.730;2023-09-07T03:55:48;42.33;;;37.83;;
5876;SDS011;2964;42.144;24.730;2023-09-07T03:58:16;40.23;;;36.00;;
5876;SDS011;2964;42.144;24.730;2023-09-07T04:00:43;38.00;;;34.27;;
5876;SDS011;2964;42.144;24.730;2023-09-07T04:03:10;41.70;;;35.47;;
5876;SDS011;2964;42.144;24.730;2023-09-07T04:05:37;41.30;;;37.10;;
5876;SDS011;2964;42.144;24.730;2023-09-07T04:08:04;41.33;;;35.63;;
5876;SDS011;2964;42.144;24.730;2023-09-07T04:10:32;41.90;;;36.57;;
5876;SDS011;2964;42.144;24.730;2023-09-07T04:12:59;41.43;;;35.60;;
5876;SDS011;2964;42.144;24.730;2023-09-07T04:15:27;44.73;;;36.30;;
5876;SDS011;2964;42.144;24.730;2023-09-07T04:17:53;49.83;;;35.97;;
5876;SDS011;2964;42.144;24.730;2023-09-07T04:20:20;47.53;;;39.33;;
5876;SDS011;2964;42.144;24.730;2023-09-07T04:22:48;43.53;;;35.77;;
5876;SDS011;2964;42.144;24.730;2023-09-07T04:25:15;40.37;;;35.10;;
5876;SDS011;2964;42.144;24.730;2023-09-07T04:27:42;41.37;;;33.43;;
5876;SDS011;2964;42.144;24.730;2023-09-07T04:30:09;42.90;;;35.67;;
5876;SDS011;2964;42.144;24.730;2023-09-07T04:32:37;38.77;;;34.40;;
5876;SDS011;2964;42.144;24.730;2023-09-07T04:35:04;37.93;;;32.87;;
5876;SDS011;2964;42.144;24.730;2023-09-07T04:37:32;41.13;;;33.47;;
5876;SDS011;2964;42.144;24.730;2023-09-07T04:39:58;36.97;;;33.20;;
5876;SDS011;2964;42.144;24.730;2023-09-07T04:42:25;40.87;;;34.83;;
5876;SDS011;2964;42.144;24.730;2023-09-07T04:44:52;39.90;;;32.40;;
5876;SDS011;2964;42.144;24.730;2023-09-07T04:47:18;36.97;;;33.17;;
5876;SDS011;2964;42.144;24.730;2023-09-07T04:49:49;35.70;;;31.93;;
5876;SDS011;2964;42.144;24.730;2023-09-07T04:52:16;41.23;;;32.47;;
5876;SDS011;2964;42.144;24.730;2023-09-07T04:54:43;39.50;;;30.40;;
5876;SDS011;2964;42.144;24.730;2023-09-07T04:57:09;31.07;;;27.67;;
5876;SDS011;2964;42.144;24.730;2023-09-07T04:59:37;31.47;;;28.13;;
5876;SDS011;2964;42.144;24.730;2023-09-07T05:02:03;32.50;;;27.40;;
5876;SDS011;2964;42.144;24.730;2023-09-07T05:04:30;27.77;;;25.00;;
5876;SDS011;2964;42.144;24.730;2023-09-07T05:06:58;28.43;;;25.37;;
5876;SDS011;2964;42.144;24.730;2023-09-07T05:09:25;27.47;;;24.67;;
5876;SDS011;2964;42.144;24.730;2023-09-07T05:11:54;28.80;;;24.83;;
5876;SDS011;2964;42.144;24.730;2023-09-07T05:14:20;29.63;;;26.40;;
5876;SDS011;2964;42.144;24.730;2023-09-07T05:16:47;26.87;;;23.90;;
5876;SDS011;2964;42.144;24.730;2023-09-07T05:19:14;25.57;;;23.23;;
5876;SDS011;2964;42.144;24.730;2023-09-07T05:21:41;23.00;;;20.80;;
5876;SDS011;2964;42.144;24.730;2023-09-07T05:24:09;24.23;;;22.03;;
5876;SDS011;2964;42.144;24.730;2023-09-07T05:26:35;23.17;;;20.93;;
5876;SDS011;2964;42.144;24.730;2023-09-07T05:29:02;24.97;;;22.47;;
5876;SDS011;2964;42.144;24.730;2023-09-07T05:31:29;24.47;;;22.37;;
5876;SDS011;2964;42.144;24.730;2023-09-07T05:33:55;26.00;;;22.37;;
5876;SDS011;2964;42.144;24.730;2023-09-07T05:36:22;24.63;;;22.27;;
5876;SDS011;2964;42.144;24.730;2023-09-07T05:38:49;24.08;;;21.13;;
5876;SDS011;2964;42.144;24.730;2023-09-07T05:41:17;22.60;;;20.42;;
5876;SDS011;2964;42.144;24.730;2023-09-07T05:43:43;20.58;;;18.73;;
5876;SDS011;2964;42.144;24.730;2023-09-07T05:46:10;20.90;;;18.73;;
5876;SDS011;2964;42.144;24.730;2023-09-07T05:48:36;22.40;;;18.85;;
5876;SDS011;2964;42.144;24.730;2023-09-07T05:51:03;22.23;;;20.13;;
5876;SDS011;2964;42.144;24.730;2023-09-07T05:53:30;22.42;;;19.52;;
5876;SDS011;2964;42.144;24.730;2023-09-07T05:55:56;21.52;;;19.15;;
5876;SDS011;2964;42.144;24.730;2023-09-07T05:58:24;21.02;;;18.83;;
5876;SDS011;2964;42.144;24.730;2023-09-07T06:00:52;20.98;;;18.77;;
5876;SDS011;2964;42.144;24.730;2023-09-07T06:03:19;20.30;;;18.20;;
5876;SDS011;2964;42.144;24.730;2023-09-07T06:05:45;19.52;;;16.83;;
5876;SDS011;2964;42.144;24.730;2023-09-07T06:08:12;21.25;;;19.10;;
5876;SDS011;2964;42.144;24.730;2023-09-07T06:10:39;21.63;;;18.95;;
5876;SDS011;2964;42.144;24.730;2023-09-07T06:13:05;22.70;;;20.33;;
5876;SDS011;2964;42.144;24.730;2023-09-07T06:15:33;22.05;;;19.80;;
5876;SDS011;2964;42.144;24.730;2023-09-07T06:18:00;24.85;;;21.02;;
5876;SDS011;2964;42.144;24.730;2023-09-07T06:20:28;21.85;;;18.40;;
5876;SDS011;2964;42.144;24.730;2023-09-07T06:22:55;27.10;;;18.83;;
5876;SDS011;2964;42.144;24.730;2023-09-07T06:25:21;22.73;;;19.58;;
5876;SDS011;2964;42.144;24.730;2023-09-07T06:27:48;25.15;;;19.10;;
5876;SDS011;2964;42.144;24.730;2023-09-07T06:30:15;22.95;;;19.05;;
5876;SDS011;2964;42.144;24.730;2023-09-07T06:32:43;20.45;;;18.35;;
5876;SDS011;2964;42.144;24.730;2023-09-07T06:35:10;22.55;;;16.30;;
5876;SDS011;2964;42.144;24.730;2023-09-07T06:37:36;24.83;;;17.58;;
5876;SDS011;2964;42.144;24.730;2023-09-07T06:40:06;21.73;;;18.08;;
5876;SDS011;2964;42.144;24.730;2023-09-07T06:42:34;21.05;;;18.15;;
5876;SDS011;2964;42.144;24.730;2023-09-07T06:45:01;20.58;;;17.77;;
5876;SDS011;2964;42.144;24.730;2023-09-07T06:47:28;18.77;;;16.65;;
5876;SDS011;2964;42.144;24.730;2023-09-07T06:49:56;29.40;;;20.10;;
5876;SDS011;2964;42.144;24.730;2023-09-07T06:52:23;27.55;;;19.90;;
5876;SDS011;2964;42.144;24.730;2023-09-07T06:54:51;18.85;;;17.05;;
5876;SDS011;2964;42.144;24.730;2023-09-07T06:57:20;19.88;;;17.92;;
5876;SDS011;2964;42.144;24.730;2023-09-07T06:59:47;20.25;;;18.45;;
5876;SDS011;2964;42.144;24.730;2023-09-07T07:02:14;19.38;;;17.55;;
5876;SDS011;2964;42.144;24.730;2023-09-07T07:04:40;19.58;;;17.20;;
5876;SDS011;2964;42.144;24.730;2023-09-07T07:07:10;20.00;;;18.00;;
5876;SDS011;2964;42.144;24.730;2023-09-07T07:09:37;19.73;;;17.80;;
5876;SDS011;2964;42.144;24.730;2023-09-07T07:12:04;19.60;;;17.55;;
5876;SDS011;2964;42.144;24.730;2023-09-07T07:14:31;19.00;;;17.20;;
5876;SDS011;2964;42.144;24.730;2023-09-07T07:16:58;19.33;;;17.05;;
5876;SDS011;2964;42.144;24.730;2023-09-07T07:19:26;19.38;;;17.58;;
5876;SDS011;2964;42.144;24.730;2023-09-07T07:21:53;23.13;;;16.50;;
5876;SDS011;2964;42.144;24.730;2023-09-07T07:24:21;18.83;;;17.13;;
5876;SDS011;2964;42.144;24.730;2023-09-07T07:26:48;18.13;;;16.17;;
5876;SDS011;2964;42.144;24.730;2023-09-07T07:29:14;17.52;;;15.80;;
5876;SDS011;2964;42.144;24.730;2023-09-07T07:31:41;16.77;;;15.32;;
5876;SDS011;2964;42.144;24.730;2023-09-07T07:34:08;17.48;;;15.15;;
5876;SDS011;2964;42.144;24.730;2023-09-07T07:36:35;19.52;;;17.63;;
5876;SDS011;2964;42.144;24.730;2023-09-07T07:39:02;20.13;;;15.93;;
5876;SDS011;2964;42.144;24.730;2023-09-07T07:41:30;19.70;;;17.77;;
5876;SDS011;2964;42.144;24.730;2023-09-07T07:43:57;17.75;;;16.08;;
5876;SDS011;2964;42.144;24.730;2023-09-07T07:46:23;16.70;;;14.98;;
5876;SDS011;2964;42.144;24.730;2023-09-07T07:48:51;15.82;;;14.55;;
5876;SDS011;2964;42.144;24.730;2023-09-07T07:51:17;16.63;;;15.25;;
5876;SDS011;2964;42.144;24.730;2023-09-07T07:53:44;19.33;;;15.93;;
5876;SDS011;2964;42.144;24.730;2023-09-07T07:56:14;18.33;;;15.70;;
5876;SDS011;2964;42.144;24.730;2023-09-07T07:58:42;16.30;;;14.70;;
5876;SDS011;2964;42.144;24.730;2023-09-07T08:01:13;17.70;;;15.82;;
5876;SDS011;2964;42.144;24.730;2023-09-07T08:03:40;17.52;;;15.52;;
5876;SDS011;2964;42.144;24.730;2023-09-07T08:06:06;16.17;;;14.73;;
5876;SDS011;2964;42.144;24.730;2023-09-07T08:08:33;15.60;;;14.27;;
5876;SDS011;2964;42.144;24.730;2023-09-07T08:11:00;16.92;;;15.48;;
5876;SDS011;2964;42.144;24.730;2023-09-07T08:13:30;17.55;;;15.90;;
5876;SDS011;2964;42.144;24.730;2023-09-07T08:15:59;16.63;;;15.00;;
5876;SDS011;2964;42.144;24.730;2023-09-07T08:18:26;18.80;;;16.98;;
5876;SDS011;2964;42.144;24.730;2023-09-07T08:20:52;16.25;;;14.77;;
5876;SDS011;2964;42.144;24.730;2023-09-07T08:23:20;17.27;;;15.70;;
5876;SDS011;2964;42.144;24.730;2023-09-07T08:25:47;15.85;;;14.38;;
5876;SDS011;2964;42.144;24.730;2023-09-07T08:28:14;16.88;;;15.40;;
5876;SDS011;2964;42.144;24.730;2023-09-07T08:30:43;18.13;;;14.52;;
5876;SDS011;2964;42.144;24.730;2023-09-07T08:33:11;15.68;;;14.15;;
5876;SDS011;2964;42.144;24.730;2023-09-07T08:35:38;16.27;;;13.27;;
5876;SDS011;2964;42.144;24.730;2023-09-07T08:38:09;17.15;;;13.23;;
5876;SDS011;2964;42.144;24.730;2023-09-07T08:40:36;14.38;;;12.77;;
5876;SDS011;2964;42.144;24.730;2023-09-07T08:43:06;20.90;;;15.63;;
5876;SDS011;2964;42.144;24.730;2023-09-07T08:45:37;19.05;;;15.15;;
5876;SDS011;2964;42.144;24.730;2023-09-07T08:48:14;16.48;;;14.50;;
5876;SDS011;2964;42.144;24.730;2023-09-07T08:50:42;16.25;;;14.65;;
5876;SDS011;2964;42.144;24.730;2023-09-07T08:53:15;17.55;;;15.82;;
5876;SDS011;2964;42.144;24.730;2023-09-07T08:55:44;15.38;;;14.18;;
5876;SDS011;2964;42.144;24.730;2023-09-07T08:58:10;18.45;;;15.88;;
5876;SDS011;2964;42.144;24.730;2023-09-07T09:00:37;17.77;;;15.55;;
5876;SDS011;2964;42.144;24.730;2023-09-07T09:03:08;16.38;;;14.82;;
5876;SDS011;2964;42.144;24.730;2023-09-07T09:05:36;16.85;;;15.43;;
5876;SDS011;2964;42.144;24.730;2023-09-07T09:08:06;18.27;;;16.80;;
5876;SDS011;2964;42.144;24.730;2023-09-07T09:10:33;21.23;;;16.05;;
5876;SDS011;2964;42.144;24.730;2023-09-07T09:12:59;18.95;;;15.90;;
5876;SDS011;2964;42.144;24.730;2023-09-07T09:15:26;19.08;;;16.08;;
5876;SDS011;2964;42.144;24.730;2023-09-07T09:17:53;16.77;;;15.25;;
5876;SDS011;2964;42.144;24.730;2023-09-07T09:20:20;20.80;;;16.02;;
5876;SDS011;2964;42.144;24.730;2023-09-07T09:22:51;19.10;;;17.15;;
5876;SDS011;2964;42.144;24.730;2023-09-07T09:25:18;18.27;;;16.38;;
5876;SDS011;2964;42.144;24.730;2023-09-07T09:27:45;20.50;;;15.95;;
5876;SDS011;2964;42.144;24.730;2023-09-07T09:30:12;16.85;;;15.25;;
5876;SDS011;2964;42.144;24.730;2023-09-07T09:32:41;19.20;;;15.40;;
5876;SDS011;2964;42.144;24.730;2023-09-07T09:35:08;15.77;;;14.27;;
5876;SDS011;2964;42.144;24.730;2023-09-07T09:37:42;17.02;;;15.30;;
5876;SDS011;2964;42.144;24.730;2023-09-07T09:40:11;17.17;;;15.85;;
5876;SDS011;2964;42.144;24.730;2023-09-07T09:42:40;15.55;;;14.05;;
5876;SDS011;2964;42.144;24.730;2023-09-07T09:45:08;15.88;;;14.38;;
5876;SDS011;2964;42.144;24.730;2023-09-07T09:47:36;14.80;;;13.60;;
5876;SDS011;2964;42.144;24.730;2023-09-07T09:50:06;14.50;;;13.05;;
5876;SDS011;2964;42.144;24.730;2023-09-07T09:52:33;15.35;;;13.50;;
5876;SDS011;2964;42.144;24.730;2023-09-07T09:55:01;15.25;;;13.88;;
5876;SDS011;2964;42.144;24.730;2023-09-07T09:57:32;17.38;;;15.85;;
5876;SDS011;2964;42.144;24.730;2023-09-07T09:59:59;15.35;;;12.20;;
5876;SDS011;2964;42.144;24.730;2023-09-07T10:02:33;14.98;;;13.63;;
5876;SDS011;2964;42.144;24.730;2023-09-07T10:05:03;13.80;;;12.90;;
5876;SDS011;2964;42.144;24.730;2023-09-07T10:07:59;14.38;;;12.88;;
5876;SDS011;2964;42.144;24.730;2023-09-07T10:10:31;13.52;;;12.48;;
5876;SDS011;2964;42.144;24.730;2023-09-07T10:13:02;19.08;;;13.10;;
5876;SDS011;2964;42.144;24.730;2023-09-07T10:15:30;14.98;;;13.63;;
5876;SDS011;2964;42.144;24.730;2023-09-07T10:18:08;16.25;;;13.35;;
5876;SDS011;2964;42.144;24.730;2023-09-07T10:20:52;21.65;;;13.98;;
5876;SDS011;2964;42.144;24.730;2023-09-07T10:23:21;15.93;;;13.57;;
5876;SDS011;2964;42.144;24.730;2023-09-07T10:25:48;16.83;;;15.10;;
5876;SDS011;2964;42.144;24.730;2023-09-07T10:28:21;12.80;;;11.40;;
5876;SDS011;2964;42.144;24.730;2023-09-07T10:30:59;13.77;;;12.35;;
5876;SDS011;2964;42.144;24.730;2023-09-07T10:33:28;14.25;;;12.98;;
5876;SDS011;2964;42.144;24.730;2023-09-07T10:35:55;12.70;;;11.45;;
5876;SDS011;2964;42.144;24.730;2023-09-07T10:38:22;15.95;;;14.25;;
5876;SDS011;2964;42.144;24.730;2023-09-07T10:40:54;16.25;;;11.75;;
5876;SDS011;2964;42.144;24.730;2023-09-07T10:43:25;14.25;;;12.77;;
5876;SDS011;2964;42.144;24.730;2023-09-07T10:45:52;18.45;;;12.73;;
5876;SDS011;2964;42.144;24.730;2023-09-07T10:48:19;14.20;;;12.20;;
5876;SDS011;2964;42.144;24.730;2023-09-07T10:50:46;12.15;;;11.15;;
5876;SDS011;2964;42.144;24.730;2023-09-07T10:53:14;14.07;;;12.75;;
5876;SDS011;2964;42.144;24.730;2023-09-07T10:55:41;14.35;;;12.85;;
5876;SDS011;2964;42.144;24.730;2023-09-07T10:58:09;14.80;;;12.88;;
5876;SDS011;2964;42.144;24.730;2023-09-07T11:00:37;13.98;;;12.52;;
5876;SDS011;2964;42.144;24.730;2023-09-07T11:03:07;14.63;;;13.52;;
5876;SDS011;2964;42.144;24.730;2023-09-07T11:05:36;12.40;;;11.25;;
5876;SDS011;2964;42.144;24.730;2023-09-07T11:08:04;15.32;;;11.77;;
5876;SDS011;2964;42.144;24.730;2023-09-07T11:10:33;13.63;;;12.18;;
5876;SDS011;2964;42.144;24.730;2023-09-07T11:13:01;11.70;;;10.55;;
5876;SDS011;2964;42.144;24.730;2023-09-07T11:15:30;17.40;;;12.40;;
5876;SDS011;2964;42.144;24.730;2023-09-07T11:17:58;12.30;;;11.30;;
5876;SDS011;2964;42.144;24.730;2023-09-07T11:20:25;17.83;;;11.30;;
5876;SDS011;2964;42.144;24.730;2023-09-07T11:22:52;12.35;;;11.55;;
5876;SDS011;2964;42.144;24.730;2023-09-07T11:25:20;12.40;;;11.23;;
5876;SDS011;2964;42.144;24.730;2023-09-07T11:27:46;17.80;;;11.90;;
5876;SDS011;2964;42.144;24.730;2023-09-07T11:30:13;12.57;;;11.50;;
5876;SDS011;2964;42.144;24.730;2023-09-07T11:32:39;11.38;;;10.20;;
5876;SDS011;2964;42.144;24.730;2023-09-07T11:35:09;12.63;;;10.98;;
5876;SDS011;2964;42.144;24.730;2023-09-07T11:37:36;11.77;;;11.02;;
5876;SDS011;2964;42.144;24.730;2023-09-07T11:40:03;11.75;;;10.85;;
5876;SDS011;2964;42.144;24.730;2023-09-07T11:42:36;12.95;;;11.75;;
5876;SDS011;2964;42.144;24.730;2023-09-07T11:45:03;12.68;;;11.57;;
5876;SDS011;2964;42.144;24.730;2023-09-07T11:47:31;14.93;;;11.13;;
5876;SDS011;2964;42.144;24.730;2023-09-07T11:49:59;16.45;;;12.43;;
5876;SDS011;2964;42.144;24.730;2023-09-07T11:52:27;12.20;;;11.18;;
5876;SDS011;2964;42.144;24.730;2023-09-07T11:54:54;11.45;;;10.55;;
5876;SDS011;2964;42.144;24.730;2023-09-07T11:57:20;13.07;;;11.73;;
5876;SDS011;2964;42.144;24.730;2023-09-07T11:59:47;13.73;;;11.38;;
5876;SDS011;2964;42.144;24.730;2023-09-07T12:02:14;12.60;;;11.38;;
5876;SDS011;2964;42.144;24.730;2023-09-07T12:04:42;12.50;;;11.20;;
5876;SDS011;2964;42.144;24.730;2023-09-07T12:07:09;11.40;;;10.23;;
5876;SDS011;2964;42.144;24.730;2023-09-07T12:09:37;15.05;;;12.18;;
5876;SDS011;2964;42.144;24.730;2023-09-07T12:12:04;11.68;;;10.57;;
5876;SDS011;2964;42.144;24.730;2023-09-07T12:14:31;11.90;;;10.95;;
5876;SDS011;2964;42.144;24.730;2023-09-07T12:16:58;11.98;;;10.95;;
5876;SDS011;2964;42.144;24.730;2023-09-07T12:19:25;14.15;;;12.80;;
5876;SDS011;2964;42.144;24.730;2023-09-07T12:21:51;11.70;;;10.32;;
5876;SDS011;2964;42.144;24.730;2023-09-07T12:24:18;10.95;;;10.25;;
5876;SDS011;2964;42.144;24.730;2023-09-07T12:26:48;11.80;;;10.68;;
5876;SDS011;2964;42.144;24.730;2023-09-07T12:29:15;11.48;;;10.50;;
5876;SDS011;2964;42.144;24.730;2023-09-07T12:31:42;11.32;;;10.57;;
5876;SDS011;2964;42.144;24.730;2023-09-07T12:34:09;11.20;;;10.35;;
5876;SDS011;2964;42.144;24.730;2023-09-07T12:36:35;11.13;;;10.32;;
5876;SDS011;2964;42.144;24.730;2023-09-07T12:39:02;12.40;;;10.40;;
5876;SDS011;2964;42.144;24.730;2023-09-07T12:41:30;12.93;;;11.77;;
5876;SDS011;2964;42.144;24.730;2023-09-07T12:43:58;10.63;;;9.80;;
5876;SDS011;2964;42.144;24.730;2023-09-07T12:46:25;11.85;;;10.93;;
5876;SDS011;2964;42.144;24.730;2023-09-07T12:48:52;11.55;;;10.55;;
5876;SDS011;2964;42.144;24.730;2023-09-07T12:51:18;12.73;;;11.52;;
5876;SDS011;2964;42.144;24.730;2023-09-07T12:53:45;11.40;;;10.32;;
5876;SDS011;2964;42.144;24.730;2023-09-07T12:56:12;11.10;;;10.23;;
5876;SDS011;2964;42.144;24.730;2023-09-07T12:58:40;10.38;;;9.48;;
5876;SDS011;2964;42.144;24.730;2023-09-07T13:01:08;10.63;;;9.82;;
5876;SDS011;2964;42.144;24.730;2023-09-07T13:03:37;11.27;;;10.27;;
5876;SDS011;2964;42.144;24.730;2023-09-07T13:06:04;10.98;;;9.98;;
5876;SDS011;2964;42.144;24.730;2023-09-07T13:08:30;14.50;;;11.32;;
5876;SDS011;2964;42.144;24.730;2023-09-07T13:10:57;9.88;;;9.23;;
5876;SDS011;2964;42.144;24.730;2023-09-07T13:13:24;11.32;;;10.18;;
5876;SDS011;2964;42.144;24.730;2023-09-07T13:15:53;11.73;;;10.68;;
5876;SDS011;2964;42.144;24.730;2023-09-07T13:18:21;11.75;;;10.77;;
5876;SDS011;2964;42.144;24.730;2023-09-07T13:20:48;13.05;;;10.85;;
5876;SDS011;2964;42.144;24.730;2023-09-07T13:23:16;16.70;;;10.52;;
5876;SDS011;2964;42.144;24.730;2023-09-07T13:25:44;10.80;;;9.82;;
5876;SDS011;2964;42.144;24.730;2023-09-07T13:28:11;12.10;;;10.85;;
5876;SDS011;2964;42.144;24.730;2023-09-07T13:30:38;13.68;;;12.27;;
5876;SDS011;2964;42.144;24.730;2023-09-07T13:33:04;12.30;;;11.20;;
5876;SDS011;2964;42.144;24.730;2023-09-07T13:35:32;13.55;;;10.85;;
5876;SDS011;2964;42.144;24.730;2023-09-07T13:37:59;13.10;;;11.30;;
5876;SDS011;2964;42.144;24.730;2023-09-07T13:40:25;16.83;;;11.52;;
5876;SDS011;2964;42.144;24.730;2023-09-07T13:42:54;14.82;;;11.23;;
5876;SDS011;2964;42.144;24.730;2023-09-07T13:45:21;10.57;;;9.63;;
5876;SDS011;2964;42.144;24.730;2023-09-07T13:47:48;10.48;;;9.88;;
5876;SDS011;2964;42.144;24.730;2023-09-07T13:50:15;17.55;;;11.07;;
5876;SDS011;2964;42.144;24.730;2023-09-07T13:52:43;12.77;;;10.88;;
5876;SDS011;2964;42.144;24.730;2023-09-07T13:55:09;11.70;;;10.80;;
5876;SDS011;2964;42.144;24.730;2023-09-07T13:57:36;12.55;;;11.35;;
5876;SDS011;2964;42.144;24.730;2023-09-07T14:00:03;10.63;;;9.75;;
5876;SDS011;2964;42.144;24.730;2023-09-07T14:02:31;13.43;;;11.05;;
5876;SDS011;2964;42.144;24.730;2023-09-07T14:04:58;13.15;;;12.10;;
5876;SDS011;2964;42.144;24.730;2023-09-07T14:07:25;12.35;;;10.77;;
5876;SDS011;2964;42.144;24.730;2023-09-07T14:09:53;11.45;;;10.40;;
5876;SDS011;2964;42.144;24.730;2023-09-07T14:12:20;14.75;;;10.48;;
5876;SDS011;2964;42.144;24.730;2023-09-07T14:14:48;11.07;;;10.00;;
5876;SDS011;2964;42.144;24.730;2023-09-07T14:17:15;15.05;;;9.57;;
5876;SDS011;2964;42.144;24.730;2023-09-07T14:19:42;10.43;;;9.63;;
5876;SDS011;2964;42.144;24.730;2023-09-07T14:22:10;11.52;;;10.23;;
5876;SDS011;2964;42.144;24.730;2023-09-07T14:24:37;11.30;;;10.50;;
5876;SDS011;2964;42.144;24.730;2023-09-07T14:27:05;10.48;;;9.63;;
5876;SDS011;2964;42.144;24.730;2023-09-07T14:29:34;13.40;;;10.18;;
5876;SDS011;2964;42.144;24.730;2023-09-07T14:32:00;12.25;;;10.90;;
5876;SDS011;2964;42.144;24.730;2023-09-07T14:34:27;12.35;;;11.13;;
5876;SDS011;2964;42.144;24.730;2023-09-07T14:36:54;11.70;;;10.77;;